Time;durP1;ratioP1;P1;durP2;ratioP2;P2;SDS_P1;SDS_P2;PMS_P1;PMS_P2;Temp;Humidity;BMP_temperature;BMP_pressure;BME280_temperature;BME280_humidity;BME280_pressure;Samples;Min_cycle;Max_cycle;Signal;HPM_P1;HPM_P2
2022/06/10 00:00:18;;;;;;;;;;;;;;;21.66;54.72;100404.69;2077327;28;19979;-46
2022/06/10 00:01:18;;;;;;;;;;;;;;;21.65;54.74;100406.53;2083244;28;19916;-45
2022/06/10 00:02:18;;;;;;;;;;;;;;;21.65;54.68;100401.03;2085336;28;19920;-48
2022/06/10 00:03:20;;;;;;;;;;;;;;;21.65;54.78;100395.56;2084311;28;19916;-47
2022/06/10 00:04:20;;;;;;;;;;;;;;;21.65;54.82;100392.81;2084295;28;19920;-47
2022/06/10 00:05:22;;;;;;;;;;;;;;;21.66;54.70;100397.31;2084743;28;19916;-46
2022/06/10 00:06:23;;;;;;;;;;;;;;;21.65;54.66;100401.03;2082637;28;19939;-45
2022/06/10 00:07:24;;;;;;;;;;;;;;;21.65;54.74;100400.19;2085965;28;19923;-46
2022/06/10 00:08:26;;;;;;;;;;;;;;;21.64;54.61;100399.34;2083434;28;19916;-45
2022/06/10 00:09:26;;;;;;;;;;;;;;;21.65;54.61;100394.69;2082556;28;20398;-50
2022/06/10 00:10:28;;;;;;;;;;;;;;;21.64;54.50;100393.84;2084000;28;19913;-46
2022/06/10 00:11:28;;;;;;;;;;;;;;;21.64;54.75;100393.84;2085319;28;19923;-46
2022/06/10 00:12:29;;;;;;;;;;;;;;;21.64;54.60;100396.59;2083182;28;19921;-47
2022/06/10 00:13:31;;;;;;;;;;;;;;;21.65;54.48;100398.31;2084322;28;20022;-47
2022/06/10 00:14:31;;;;;;;;;;;;;;;21.65;54.79;100402.94;2081814;28;19916;-46
2022/06/10 00:15:32;;;;;;;;;;;;;;;21.65;54.58;100394.69;2082046;28;19954;-48
2022/06/10 00:16:33;;;;;;;;;;;;;;;21.64;54.60;100393.00;2076165;28;19917;-47
2022/06/10 00:17:33;;;;;;;;;;;;;;;21.64;54.35;100393.84;2075653;28;19928;-47
2022/06/10 00:18:34;;;;;;;;;;;;;;;21.64;54.46;100399.34;2083812;28;19917;-45
2022/06/10 00:19:35;;;;;;;;;;;;;;;21.64;54.46;100395.75;2086306;28;19958;-46
2022/06/10 00:20:35;;;;;;;;;;;;;;;21.65;54.41;100392.81;2083051;28;19923;-45
2022/06/10 00:21:35;;;;;;;;;;;;;;;21.65;54.74;100395.56;2084558;28;19955;-46
2022/06/10 00:22:35;;;;;;;;;;;;;;;21.64;54.65;100391.09;2085246;28;19915;-46
2022/06/10 00:23:36;;;;;;;;;;;;;;;21.64;54.58;100395.75;2082528;28;19908;-47
2022/06/10 00:24:36;;;;;;;;;;;;;;;21.65;54.66;100401.03;2084331;28;19913;-46
2022/06/10 00:25:36;;;;;;;;;;;;;;;21.65;54.60;100398.31;2083132;28;20019;-46
2022/06/10 00:26:37;;;;;;;;;;;;;;;21.66;54.73;100396.44;2084577;28;20017;-45
2022/06/10 00:27:37;;;;;;;;;;;;;;;21.64;54.75;100388.38;2087439;28;19990;-46
2022/06/10 00:28:38;;;;;;;;;;;;;;;21.64;54.76;100399.34;2083727;28;19920;-47
2022/06/10 00:29:38;;;;;;;;;;;;;;;21.64;54.59;100399.34;2084926;28;20030;-49
2022/06/10 00:30:39;;;;;;;;;;;;;;;21.65;54.84;100394.69;2084091;28;20235;-47
2022/06/10 00:31:39;;;;;;;;;;;;;;;21.64;54.86;100385.63;2083786;28;19974;-48
2022/06/10 00:32:39;;;;;;;;;;;;;;;21.65;54.68;100386.47;2084645;28;19917;-46
2022/06/10 00:33:40;;;;;;;;;;;;;;;21.64;54.59;100388.38;2083553;28;19971;-46
2022/06/10 00:34:41;;;;;;;;;;;;;;;21.64;54.90;100382.88;2085506;28;20341;-45
2022/06/10 00:35:42;;;;;;;;;;;;;;;21.64;54.89;100388.38;2088363;28;19965;-45
2022/06/10 00:36:42;;;;;;;;;;;;;;;21.64;54.54;100393.00;2090896;28;19912;-46
2022/06/10 00:37:42;;;;;;;;;;;;;;;21.64;54.84;100393.84;2087918;28;19924;-46
2022/06/10 00:38:43;;;;;;;;;;;;;;;21.62;54.66;100388.50;2083447;28;19916;-45
2022/06/10 00:39:43;;;;;;;;;;;;;;;21.62;54.66;100391.25;2086925;28;19916;-46
2022/06/10 00:40:47;;;;;;;;;;;;;;;21.62;54.67;100391.25;2092238;28;19923;-46
2022/06/10 00:41:47;;;;;;;;;;;;;;;21.63;54.76;100392.09;2093237;28;19927;-49
2022/06/10 00:42:48;;;;;;;;;;;;;;;21.62;54.67;100393.16;2089819;28;19916;-52
2022/06/10 00:43:48;;;;;;;;;;;;;;;21.63;54.83;100392.09;2083252;28;19995;-52
2022/06/10 00:44:53;;;;;;;;;;;;;;;21.63;54.83;100389.38;2087127;28;19917;-53
2022/06/10 00:45:53;;;;;;;;;;;;;;;21.63;54.52;100392.09;2088611;28;19920;-52
2022/06/10 00:46:54;;;;;;;;;;;;;;;21.62;54.68;100384.91;2081785;28;20441;-52
2022/06/10 00:47:54;;;;;;;;;;;;;;;21.62;54.75;100384.91;2085271;28;19920;-51
2022/06/10 00:48:54;;;;;;;;;;;;;;;21.61;54.45;100383.19;2084872;28;19916;-52
2022/06/10 00:50:00;;;;;;;;;;;;;;;21.62;54.74;100384.91;2083128;28;19909;-52
2022/06/10 00:51:03;;;;;;;;;;;;;;;21.62;54.58;100388.50;2083903;28;19912;-52
2022/06/10 00:52:04;;;;;;;;;;;;;;;21.61;54.63;100389.53;2083875;28;19923;-53
2022/06/10 00:53:06;;;;;;;;;;;;;;;21.63;54.71;100386.63;2079147;28;20868;-51
2022/06/10 00:54:09;;;;;;;;;;;;;;;21.62;54.58;100385.75;2084254;28;20003;-50
2022/06/10 00:55:10;;;;;;;;;;;;;;;21.62;54.84;100384.91;2086746;28;19916;-52
2022/06/10 00:56:13;;;;;;;;;;;;;;;21.62;54.48;100383.03;2085351;28;19988;-53
2022/06/10 00:57:19;;;;;;;;;;;;;;;21.63;54.76;100381.13;2088029;28;19917;-52
2022/06/10 00:58:23;;;;;;;;;;;;;;;21.62;54.85;100379.44;2087079;28;19969;-52
2022/06/10 00:59:25;;;;;;;;;;;;;;;21.63;54.79;100375.66;2087218;28;19922;-51
2022/06/10 01:00:27;;;;;;;;;;;;;;;21.62;54.84;100368.44;2092315;28;21599;-53
2022/06/10 01:01:28;;;;;;;;;;;;;;;21.62;54.78;100371.19;2085708;28;19963;-52
2022/06/10 01:02:33;;;;;;;;;;;;;;;21.62;54.70;100372.06;2085248;28;19923;-50
2022/06/10 01:03:33;;;;;;;;;;;;;;;21.62;54.63;100374.78;2080548;28;20080;-51
2022/06/10 01:04:33;;;;;;;;;;;;;;;21.62;54.93;100368.44;2086196;28;19916;-52
2022/06/10 01:05:34;;;;;;;;;;;;;;;21.62;54.83;100368.44;2087929;28;20031;-52
2022/06/10 01:06:34;;;;;;;;;;;;;;;21.62;54.74;100372.06;2087309;28;19967;-52
2022/06/10 01:07:37;;;;;;;;;;;;;;;21.62;54.68;100373.94;2085817;28;19916;-50
2022/06/10 01:08:38;;;;;;;;;;;;;;;21.62;54.74;100369.31;2086587;28;19964;-51
2022/06/10 01:09:39;;;;;;;;;;;;;;;21.61;54.77;100367.59;2084679;28;20641;-51
2022/06/10 01:10:45;;;;;;;;;;;;;;;21.62;54.66;100371.19;2095304;28;19916;-52
2022/06/10 01:12:01;;;;;;;;;;;;;;;21.61;54.89;100358.50;2083474;28;20247;-51
2022/06/10 01:13:16;;;;;;;;;;;;;;;21.60;54.79;100357.63;2075236;28;20519;-51
2022/06/10 01:14:19;;;;;;;;;;;;;;;21.60;54.69;100365.84;2077440;28;20486;-51
2022/06/10 01:15:35;;;;;;;;;;;;;;;21.61;54.71;100366.75;2085056;28;20160;-52
2022/06/10 01:16:35;;;;;;;;;;;;;;;21.60;54.70;100365.84;2087000;28;20291;-51
2022/06/10 01:17:54;;;;;;;;;;;;;;;21.60;54.78;100367.75;2084345;28;19913;-52
2022/06/10 01:19:04;;;;;;;;;;;;;;;21.60;54.57;100359.50;2085379;28;20496;-52
2022/06/10 01:20:20;;;;;;;;;;;;;;;21.60;54.58;100367.75;2083787;28;20170;-50
2022/06/10 01:21:26;;;;;;;;;;;;;;;21.60;54.85;100356.78;2083646;28;20019;-51
2022/06/10 01:22:38;;;;;;;;;;;;;;;21.60;54.71;100354.03;2084597;28;19959;-51
2022/06/10 01:23:45;;;;;;;;;;;;;;;21.61;54.65;100355.78;2084403;28;19917;-52
2022/06/10 01:24:48;;;;;;;;;;;;;;;21.60;54.69;100354.03;2084275;28;19928;-52
2022/06/10 01:26:06;;;;;;;;;;;;;;;21.60;54.62;100352.16;2083147;28;20491;-51
2022/06/10 01:28:41;;;;;;;;;;;;;;;21.60;54.67;100354.03;2085950;28;20030;-52
2022/06/10 01:29:41;;;;;;;;;;;;;;;21.59;54.59;100338.59;2081314;28;19916;-51
2022/06/10 01:30:44;;;;;;;;;;;;;;;21.61;54.73;100344.78;2083064;28;19927;-50
2022/06/10 01:31:44;;;;;;;;;;;;;;;21.59;54.62;100341.34;2085339;28;19952;-51
2022/06/10 01:32:54;;;;;;;;;;;;;;;21.60;54.78;100348.53;2081272;28;19923;-51
2022/06/10 01:34:04;;;;;;;;;;;;;;;21.60;54.55;100346.66;2078989;28;19917;-51
2022/06/10 01:35:04;;;;;;;;;;;;;;;21.61;54.71;100339.31;2079693;28;19909;-52
2022/06/10 01:36:08;;;;;;;;;;;;;;;21.60;54.57;100338.44;2083018;28;20007;-49
2022/06/10 01:37:15;;;;;;;;;;;;;;;21.60;54.56;100332.94;2086804;28;20010;-52
2022/06/10 01:38:22;;;;;;;;;;;;;;;21.60;54.56;100329.34;2078271;28;19917;-51
2022/06/10 01:39:41;;;;;;;;;;;;;;;21.61;54.86;100328.34;2081778;28;20352;-50
2022/06/10 01:40:47;;;;;;;;;;;;;;;21.60;54.58;100332.09;2085761;28;19924;-49
2022/06/10 01:41:50;;;;;;;;;;;;;;;21.60;54.61;100323.84;2085283;28;19971;-51
2022/06/10 01:43:09;;;;;;;;;;;;;;;21.59;54.69;100322.16;2084956;28;20219;-50
2022/06/10 01:44:30;;;;;;;;;;;;;;;21.57;54.64;100316.81;2084817;28;20014;-49
2022/06/10 01:45:34;;;;;;;;;;;;;;;21.60;54.70;100326.59;2081794;28;19913;-51
2022/06/10 01:46:37;;;;;;;;;;;;;;;21.59;54.69;100324.88;2083424;28;19962;-52
2022/06/10 01:47:49;;;;;;;;;;;;;;;21.58;54.63;100323.16;2085939;28;19970;-51
2022/06/10 01:49:08;;;;;;;;;;;;;;;21.58;54.78;100323.16;2086214;28;19916;-52
2022/06/10 01:50:09;;;;;;;;;;;;;;;21.59;54.71;100327.63;2083405;28;19909;-52
2022/06/10 01:51:21;;;;;;;;;;;;;;;21.58;54.65;100325.91;2087435;28;20259;-50
2022/06/10 01:52:27;;;;;;;;;;;;;;;21.57;54.64;100326.94;2079101;28;19954;-51
2022/06/10 01:53:34;;;;;;;;;;;;;;;21.57;54.76;100322.28;2081547;28;19923;-51
2022/06/10 01:54:37;;;;;;;;;;;;;;;21.57;54.82;100322.28;2084009;28;19939;-52
2022/06/10 01:56:01;;;;;;;;;;;;;;;21.57;54.60;100324.19;2094221;28;19916;-51
2022/06/10 01:57:06;;;;;;;;;;;;;;;21.57;54.57;100332.41;2084834;28;19963;-52
2022/06/10 01:58:13;;;;;;;;;;;;;;;21.56;54.60;100325.22;2084640;28;19990;-52
2022/06/10 01:59:17;;;;;;;;;;;;;;;21.57;54.40;100326.94;2086272;28;20415;-52
2022/06/10 02:00:22;;;;;;;;;;;;;;;21.57;54.51;100332.41;2083560;28;20328;-51
2022/06/10 02:01:32;;;;;;;;;;;;;;;21.56;54.67;100330.72;2087323;28;19956;-52
2022/06/10 02:02:35;;;;;;;;;;;;;;;21.57;54.67;100335.16;2080964;28;19916;-50
2022/06/10 02:03:38;;;;;;;;;;;;;;;21.57;54.64;100333.28;2087834;28;19916;-51
2022/06/10 02:04:41;;;;;;;;;;;;;;;21.57;54.58;100332.41;2086341;28;19952;-52
2022/06/10 02:05:45;;;;;;;;;;;;;;;21.58;54.82;100334.13;2085958;28;19908;-51
2022/06/10 02:06:52;;;;;;;;;;;;;;;21.57;54.58;100333.28;2085653;28;19921;-49
2022/06/10 02:07:56;;;;;;;;;;;;;;;21.59;54.58;100330.38;2085200;28;19917;-52
2022/06/10 02:09:05;;;;;;;;;;;;;;;21.59;54.67;100333.13;2086797;28;19936;-51
2022/06/10 02:10:09;;;;;;;;;;;;;;;21.57;54.72;100332.41;2084740;28;20660;-52
2022/06/10 02:11:12;;;;;;;;;;;;;;;21.57;54.93;100329.66;2085342;28;20330;-50
2022/06/10 02:12:18;;;;;;;;;;;;;;;21.57;54.68;100325.03;2095613;28;19912;-52
2022/06/10 02:13:21;;;;;;;;;;;;;;;21.57;54.68;100332.41;2083852;28;19924;-52
2022/06/10 02:14:42;;;;;;;;;;;;;;;21.57;54.55;100332.41;2082348;28;20378;-49
2022/06/10 02:15:46;;;;;;;;;;;;;;;21.57;54.71;100326.94;2089183;28;19905;-51
2022/06/10 02:16:48;;;;;;;;;;;;;;;21.56;54.79;100337.03;2081704;28;19971;-52
2022/06/10 02:17:59;;;;;;;;;;;;;;;21.57;54.59;100335.16;2086365;28;20440;-50
2022/06/10 02:19:06;;;;;;;;;;;;;;;21.56;54.85;100331.56;2086764;28;19979;-50
2022/06/10 02:20:10;;;;;;;;;;;;;;;21.57;54.51;100329.66;2084998;28;19917;-50
2022/06/10 02:21:18;;;;;;;;;;;;;;;21.56;54.51;100325.22;2087214;28;20041;-52
2022/06/10 02:22:19;;;;;;;;;;;;;;;21.56;54.76;100325.22;2078036;28;19966;-51
2022/06/10 02:23:22;;;;;;;;;;;;;;;21.55;54.58;100328.97;2080704;28;19908;-52
2022/06/10 02:24:28;;;;;;;;;;;;;;;21.55;54.77;100326.22;2085878;28;19916;-51
2022/06/10 02:25:39;;;;;;;;;;;;;;;21.56;54.57;100331.56;2078631;28;19924;-51
2022/06/10 02:26:40;;;;;;;;;;;;;;;21.55;54.78;100334.44;2084094;28;19939;-52
2022/06/10 02:27:43;;;;;;;;;;;;;;;21.55;54.65;100334.44;2085098;28;19923;-51
2022/06/10 02:28:48;;;;;;;;;;;;;;;21.55;54.57;100335.31;2086530;28;19919;-52
2022/06/10 02:29:54;;;;;;;;;;;;;;;21.55;54.68;100334.44;2084386;28;20007;-51
2022/06/10 02:31:01;;;;;;;;;;;;;;;21.54;54.70;100333.59;2087078;28;19909;-49
2022/06/10 02:32:01;;;;;;;;;;;;;;;21.54;54.58;100327.25;2082805;28;19916;-49
2022/06/10 02:33:02;;;;;;;;;;;;;;;21.53;54.72;100328.25;2081468;28;19967;-51
2022/06/10 02:34:03;;;;;;;;;;;;;;;21.54;54.51;100328.09;2083314;28;19916;-52
2022/06/10 02:35:04;;;;;;;;;;;;;;;21.54;54.59;100332.75;2083553;28;20295;-50
2022/06/10 02:36:04;;;;;;;;;;;;;;;21.55;54.53;100334.44;2085080;28;19923;-52
2022/06/10 02:37:05;;;;;;;;;;;;;;;21.55;54.45;100343.53;2085979;28;19931;-51
2022/06/10 02:38:16;;;;;;;;;;;;;;;21.54;54.59;100332.75;2085325;28;19916;-49
2022/06/10 02:39:21;;;;;;;;;;;;;;;21.54;54.69;100341.81;2083340;28;20684;-51
2022/06/10 02:40:24;;;;;;;;;;;;;;;21.55;54.43;100342.69;2086089;28;19921;-50
2022/06/10 02:41:31;;;;;;;;;;;;;;;21.55;54.65;100334.44;2075180;28;20027;-49
2022/06/10 02:42:42;;;;;;;;;;;;;;;21.55;54.68;100345.41;2076360;28;20153;-51
2022/06/10 02:44:05;;;;;;;;;;;;;;;21.55;54.60;100339.94;2086913;28;19912;-51
2022/06/10 02:45:05;;;;;;;;;;;;;;;21.54;54.68;100340.97;2078061;28;20420;-52
2022/06/10 02:46:10;;;;;;;;;;;;;;;21.54;54.74;100336.34;2083363;28;19916;-51
2022/06/10 02:47:13;;;;;;;;;;;;;;;21.55;54.81;100337.19;2076445;28;19913;-51
2022/06/10 02:48:35;;;;;;;;;;;;;;;21.54;54.71;100343.72;2068754;28;20298;-51
2022/06/10 02:49:35;;;;;;;;;;;;;;;21.55;54.50;100337.19;2083088;28;19923;-52
2022/06/10 02:50:36;;;;;;;;;;;;;;;21.55;54.76;100345.41;2074946;28;20052;-51
2022/06/10 02:51:38;;;;;;;;;;;;;;;21.54;54.58;100344.56;2072488;28;19923;-49
2022/06/10 02:52:39;;;;;;;;;;;;;;;21.54;54.83;100340.97;2085365;28;19960;-52
2022/06/10 02:53:39;;;;;;;;;;;;;;;21.54;54.53;100343.72;2084701;28;20470;-50
2022/06/10 02:54:40;;;;;;;;;;;;;;;21.54;54.46;100346.47;2084393;28;19920;-52
2022/06/10 02:55:40;;;;;;;;;;;;;;;21.54;54.57;100344.56;2084889;28;19916;-51
2022/06/10 02:56:41;;;;;;;;;;;;;;;21.53;54.50;100342.81;2090550;28;20683;-52
2022/06/10 03:01:41;;;;;;;;;;;;;;;21.52;54.78;100341.13;2084757;28;20553;-52
2022/06/10 03:02:53;;;;;;;;;;;;;;;21.53;54.63;100341.97;2089712;28;19916;-49
2022/06/10 03:03:59;;;;;;;;;;;;;;;21.53;54.61;100347.47;2091666;28;19988;-50
2022/06/10 03:05:01;;;;;;;;;;;;;;;21.52;54.56;100348.50;2086398;28;19909;-51
2022/06/10 03:06:20;;;;;;;;;;;;;;;21.52;54.51;100345.75;2084474;28;19923;-49
2022/06/10 03:07:32;;;;;;;;;;;;;;;21.53;54.58;100352.94;2075334;28;20023;-51
2022/06/10 03:08:35;;;;;;;;;;;;;;;21.53;54.75;100350.19;2078717;28;19917;-51
2022/06/10 03:09:36;;;;;;;;;;;;;;;21.52;54.60;100351.22;2085391;28;19965;-52
2022/06/10 03:10:48;;;;;;;;;;;;;;;21.51;54.40;100353.13;2077076;28;19987;-50
2022/06/10 03:11:55;;;;;;;;;;;;;;;21.52;54.62;100354.84;2078549;28;19944;-53
2022/06/10 03:12:55;;;;;;;;;;;;;;;21.52;54.48;100351.22;2082091;28;19995;-51
2022/06/10 03:13:58;;;;;;;;;;;;;;;21.53;54.45;100352.94;2077603;28;19936;-49
2022/06/10 03:15:08;;;;;;;;;;;;;;;21.52;54.51;100351.22;2078670;28;19917;-49
2022/06/10 03:16:28;;;;;;;;;;;;;;;21.53;54.69;100352.94;2082277;28;19927;-52
2022/06/10 03:17:29;;;;;;;;;;;;;;;21.52;54.70;100354.84;2085899;28;20212;-50
2022/06/10 03:18:41;;;;;;;;;;;;;;;21.52;54.69;100354.84;2080838;28;20383;-51
2022/06/10 03:19:41;;;;;;;;;;;;;;;21.52;54.61;100348.50;2082945;28;20067;-52
2022/06/10 03:20:57;;;;;;;;;;;;;;;21.52;54.62;100352.09;2086651;28;19924;-51
2022/06/10 03:22:01;;;;;;;;;;;;;;;21.52;54.56;100349.34;2082026;28;19993;-52
2022/06/10 03:23:01;;;;;;;;;;;;;;;21.53;54.53;100347.47;2082305;28;19920;-52
2022/06/10 03:24:24;;;;;;;;;;;;;;;21.51;54.55;100342.16;2086071;28;20251;-49
2022/06/10 03:25:24;;;;;;;;;;;;;;;21.52;54.77;100348.50;2084276;28;19916;-51
2022/06/10 03:26:31;;;;;;;;;;;;;;;21.52;54.57;100345.75;2084127;28;20019;-50
2022/06/10 03:27:48;;;;;;;;;;;;;;;21.52;54.76;100348.50;2077441;28;19917;-52
2022/06/10 03:28:52;;;;;;;;;;;;;;;21.51;54.78;100347.63;2082666;28;20450;-52
2022/06/10 03:29:56;;;;;;;;;;;;;;;21.51;54.65;100349.50;2083055;28;20811;-48
2022/06/10 03:31:01;;;;;;;;;;;;;;;21.51;54.50;100349.50;2085960;28;20286;-52
2022/06/10 03:32:09;;;;;;;;;;;;;;;21.51;54.44;100352.25;2083536;28;20311;-49
2022/06/10 03:33:19;;;;;;;;;;;;;;;21.50;54.73;100354.13;2082741;28;19949;-50
2022/06/10 03:34:30;;;;;;;;;;;;;;;21.51;54.52;100352.25;2081870;28;19920;-51
2022/06/10 03:35:33;;;;;;;;;;;;;;;21.50;54.54;100353.28;2077276;28;20003;-50
2022/06/10 03:36:34;;;;;;;;;;;;;;;21.50;54.70;100348.66;2083758;28;20374;-52
2022/06/10 03:37:36;;;;;;;;;;;;;;;21.49;54.50;100346.94;2084828;28;20487;-52
2022/06/10 03:38:40;;;;;;;;;;;;;;;21.49;54.58;100344.19;2084978;28;19909;-51
2022/06/10 03:39:41;;;;;;;;;;;;;;;21.49;54.41;100351.56;2084474;28;20359;-51
2022/06/10 03:40:42;;;;;;;;;;;;;;;21.49;54.45;100357.06;2084728;28;20306;-52
2022/06/10 03:41:53;;;;;;;;;;;;;;;21.50;54.62;100353.28;2085097;28;19938;-51
2022/06/10 03:42:55;;;;;;;;;;;;;;;21.50;54.32;100353.28;2082000;28;20281;-50
2022/06/10 03:43:57;;;;;;;;;;;;;;;21.50;54.57;100350.53;2085084;28;19916;-49
2022/06/10 03:44:58;;;;;;;;;;;;;;;21.50;54.50;100356.00;2088861;28;19927;-52
2022/06/10 03:46:00;;;;;;;;;;;;;;;21.50;54.40;100362.34;2086887;28;19909;-49
2022/06/10 03:47:03;;;;;;;;;;;;;;;21.50;54.47;100361.50;2085073;28;20377;-51
2022/06/10 03:48:04;;;;;;;;;;;;;;;21.49;54.69;100357.91;2085017;28;20338;-50
2022/06/10 03:49:08;;;;;;;;;;;;;;;21.50;54.51;100364.25;2081758;28;19956;-51
2022/06/10 03:50:12;;;;;;;;;;;;;;;21.50;54.65;100362.34;2095021;28;19966;-49
2022/06/10 03:51:14;;;;;;;;;;;;;;;21.50;54.43;100364.25;2085273;28;20126;-52
2022/06/10 03:52:18;;;;;;;;;;;;;;;21.49;54.39;100362.53;2083177;28;19964;-51
2022/06/10 03:53:21;;;;;;;;;;;;;;;21.50;54.65;100364.25;2085384;28;19916;-49
2022/06/10 03:54:21;;;;;;;;;;;;;;;21.50;54.49;100369.72;2088826;28;19993;-50
2022/06/10 03:55:21;;;;;;;;;;;;;;;21.50;54.54;100364.25;2093472;28;19912;-51
2022/06/10 03:56:22;;;;;;;;;;;;;;;21.50;54.50;100367.84;2083333;28;19928;-49
2022/06/10 03:57:23;;;;;;;;;;;;;;;21.50;54.66;100367.00;2085875;28;19922;-49
2022/06/10 03:58:23;;;;;;;;;;;;;;;21.50;54.58;100367.00;2083920;28;20262;-51
2022/06/10 03:59:23;;;;;;;;;;;;;;;21.49;54.49;100371.63;2083918;28;20288;-49
2022/06/10 04:00:25;;;;;;;;;;;;;;;21.50;54.69;100361.50;2088692;28;19951;-51
2022/06/10 04:01:25;;;;;;;;;;;;;;;21.48;54.66;100363.53;2083371;28;20424;-51
2022/06/10 04:02:26;;;;;;;;;;;;;;;21.49;54.78;100363.38;2082741;28;19916;-50
2022/06/10 04:03:26;;;;;;;;;;;;;;;21.48;54.54;100361.66;2085952;28;19916;-51
2022/06/10 04:04:26;;;;;;;;;;;;;;;21.49;54.56;100366.13;2085138;28;19916;-51
2022/06/10 04:05:27;;;;;;;;;;;;;;;21.49;54.53;100368.03;2076508;28;19916;-51
2022/06/10 04:06:27;;;;;;;;;;;;;;;21.47;54.61;100353.59;2085564;28;20550;-51
2022/06/10 04:07:27;;;;;;;;;;;;;;;21.48;54.71;100358.06;2084248;28;19920;-50
2022/06/10 04:08:28;;;;;;;;;;;;;;;21.46;54.49;100360.97;2084693;28;19916;-50
2022/06/10 04:09:28;;;;;;;;;;;;;;;21.49;54.73;100365.28;2083762;28;20011;-48
2022/06/10 04:10:29;;;;;;;;;;;;;;;21.47;54.72;100361.81;2086201;28;20215;-50
2022/06/10 04:11:30;;;;;;;;;;;;;;;21.46;54.68;100357.34;2078493;28;20686;-49
2022/06/10 04:12:30;;;;;;;;;;;;;;;21.46;54.60;100357.34;2083385;28;19912;-49
2022/06/10 04:13:30;;;;;;;;;;;;;;;21.47;54.36;100364.56;2082519;28;19927;-51
2022/06/10 04:14:30;;;;;;;;;;;;;;;21.46;54.61;100354.59;2084326;28;19951;-50
2022/06/10 04:15:32;;;;;;;;;;;;;;;21.45;54.77;100359.22;2087074;28;20294;-52
2022/06/10 04:16:33;;;;;;;;;;;;;;;21.45;54.39;100361.97;2084741;28;19908;-51
2022/06/10 04:17:33;;;;;;;;;;;;;;;21.46;54.42;100362.84;2081517;28;20013;-49
2022/06/10 04:18:33;;;;;;;;;;;;;;;21.46;54.57;100360.09;2084073;28;19916;-50
2022/06/10 04:19:34;;;;;;;;;;;;;;;21.47;54.52;100361.81;2081309;28;19909;-52
2022/06/10 04:20:35;;;;;;;;;;;;;;;21.46;54.57;100366.47;2083845;28;19920;-52
2022/06/10 04:21:35;;;;;;;;;;;;;;;21.46;54.48;100362.84;2078925;28;19990;-52
2022/06/10 04:22:37;;;;;;;;;;;;;;;21.46;54.37;100366.47;2082639;28;19954;-51
2022/06/10 04:23:37;;;;;;;;;;;;;;;21.47;54.60;100356.34;2083502;28;19923;-51
2022/06/10 04:24:38;;;;;;;;;;;;;;;21.46;54.58;100357.34;2079204;28;19915;-52
2022/06/10 04:25:39;;;;;;;;;;;;;;;21.46;54.53;100360.09;2086743;28;20011;-52
2022/06/10 04:26:39;;;;;;;;;;;;;;;21.46;54.74;100351.84;2084344;28;19912;-49
2022/06/10 04:27:39;;;;;;;;;;;;;;;21.46;54.43;100357.34;2081632;28;19967;-49
2022/06/10 04:28:40;;;;;;;;;;;;;;;21.46;54.67;100354.59;2082728;28;19921;-51
2022/06/10 04:29:40;;;;;;;;;;;;;;;21.46;54.56;100360.09;2083698;28;19916;-50
2022/06/10 04:30:45;;;;;;;;;;;;;;;21.44;54.54;100354.78;2084488;28;19946;-50
2022/06/10 04:31:45;;;;;;;;;;;;;;;21.46;54.59;100357.34;2083551;28;19923;-51
2022/06/10 04:32:46;;;;;;;;;;;;;;;21.45;54.52;100356.50;2082991;28;19920;-50
2022/06/10 04:33:46;;;;;;;;;;;;;;;21.45;54.53;100358.38;2082826;28;20507;-51
2022/06/10 04:34:46;;;;;;;;;;;;;;;21.45;54.65;100347.41;2080856;28;20204;-48
2022/06/10 04:35:48;;;;;;;;;;;;;;;21.46;54.30;100355.50;2082367;28;19923;-51
2022/06/10 04:36:49;;;;;;;;;;;;;;;21.44;54.67;100353.94;2084268;28;20337;-50
2022/06/10 04:37:49;;;;;;;;;;;;;;;21.44;54.35;100354.78;2079904;28;20740;-51
2022/06/10 04:38:50;;;;;;;;;;;;;;;21.44;54.62;100353.94;2085193;28;19923;-52
2022/06/10 04:39:50;;;;;;;;;;;;;;;21.44;54.61;100359.41;2077884;28;19924;-49
2022/06/10 04:40:51;;;;;;;;;;;;;;;21.44;54.66;100359.41;2084675;28;19946;-52
2022/06/10 04:41:51;;;;;;;;;;;;;;;21.44;54.48;100362.16;2077087;28;19998;-52
2022/06/10 04:42:51;;;;;;;;;;;;;;;21.43;54.40;100355.78;2085741;28;19959;-51
2022/06/10 04:43:52;;;;;;;;;;;;;;;21.44;54.39;100353.94;2084974;28;20779;-51
2022/06/10 04:44:52;;;;;;;;;;;;;;;21.43;54.44;100357.66;2077385;28;19995;-51
2022/06/10 04:45:53;;;;;;;;;;;;;;;21.43;54.26;100354.94;2081531;28;19917;-50
2022/06/10 04:46:54;;;;;;;;;;;;;;;21.43;54.46;100364.00;2084403;28;19917;-49
2022/06/10 04:47:54;;;;;;;;;;;;;;;21.43;54.38;100368.63;2079506;28;19917;-50
2022/06/10 04:48:55;;;;;;;;;;;;;;;21.44;54.36;100364.91;2082748;28;19916;-52
2022/06/10 04:49:59;;;;;;;;;;;;;;;21.43;54.34;100363.16;2078871;28;19963;-48
2022/06/10 04:51:00;;;;;;;;;;;;;;;21.43;54.30;100360.41;2079596;28;19916;-51
2022/06/10 04:52:00;;;;;;;;;;;;;;;21.43;54.33;100365.91;2082259;28;19998;-51
2022/06/10 04:53:01;;;;;;;;;;;;;;;21.42;54.50;100367.78;2077940;28;20018;-52
2022/06/10 04:54:03;;;;;;;;;;;;;;;21.44;54.59;100364.91;2083563;28;19993;-51
2022/06/10 04:55:04;;;;;;;;;;;;;;;21.44;54.25;100365.75;2082097;28;19939;-52
2022/06/10 04:56:04;;;;;;;;;;;;;;;21.43;54.45;100364.00;2080794;28;19916;-52
2022/06/10 04:57:05;;;;;;;;;;;;;;;21.43;54.31;100364.00;2083456;28;19922;-49
2022/06/10 04:58:06;;;;;;;;;;;;;;;21.43;54.32;100357.66;2089211;28;20140;-52
2022/06/10 04:59:06;;;;;;;;;;;;;;;21.43;54.33;100363.16;2084421;28;19916;-50
2022/06/10 05:00:08;;;;;;;;;;;;;;;21.43;54.52;100353.03;2085314;28;19921;-51
2022/06/10 05:01:09;;;;;;;;;;;;;;;21.43;54.29;100357.66;2086513;28;20034;-51
2022/06/10 05:02:09;;;;;;;;;;;;;;;21.43;54.55;100360.41;2086867;28;19923;-51
2022/06/10 05:03:10;;;;;;;;;;;;;;;21.42;54.42;100356.81;2084900;28;19917;-51
2022/06/10 05:04:10;;;;;;;;;;;;;;;21.43;54.56;100363.16;2084032;28;19920;-50
2022/06/10 05:05:10;;;;;;;;;;;;;;;21.42;54.55;100362.31;2086370;28;19908;-52
2022/06/10 05:06:11;;;;;;;;;;;;;;;21.43;54.33;100360.41;2085516;28;20745;-51
2022/06/10 05:07:11;;;;;;;;;;;;;;;21.43;54.55;100360.41;2083432;28;19936;-51
2022/06/10 05:08:13;;;;;;;;;;;;;;;21.43;54.54;100363.16;2085011;28;19909;-51
2022/06/10 05:09:13;;;;;;;;;;;;;;;21.42;54.30;100364.19;2083868;28;19974;-50
2022/06/10 05:10:14;;;;;;;;;;;;;;;21.42;54.53;100365.03;2085270;28;20334;-52
2022/06/10 05:11:14;;;;;;;;;;;;;;;21.42;54.39;100362.31;2082796;28;20509;-51
2022/06/10 05:12:14;;;;;;;;;;;;;;;21.42;54.52;100361.44;2085005;28;20144;-51
2022/06/10 05:13:20;;;;;;;;;;;;;;;21.42;54.32;100355.97;2083264;28;19909;-50
2022/06/10 05:14:21;;;;;;;;;;;;;;;21.42;54.52;100355.97;2083519;28;19917;-52
2022/06/10 05:15:22;;;;;;;;;;;;;;;21.41;54.60;100360.56;2085124;28;20003;-50
2022/06/10 05:16:22;;;;;;;;;;;;;;;21.42;54.40;100361.44;2082993;28;19963;-50
2022/06/10 05:17:22;;;;;;;;;;;;;;;21.40;54.49;100356.09;2085572;28;20373;-51
2022/06/10 05:18:23;;;;;;;;;;;;;;;21.40;54.43;100359.72;2084022;28;19923;-50
2022/06/10 05:19:24;;;;;;;;;;;;;;;21.39;54.43;100349.78;2087229;28;19928;-49
2022/06/10 05:20:26;;;;;;;;;;;;;;;21.40;54.33;100358.84;2084342;28;20360;-51
2022/06/10 05:21:27;;;;;;;;;;;;;;;21.40;54.48;100356.97;2082844;28;19915;-51
2022/06/10 05:22:27;;;;;;;;;;;;;;;21.39;54.43;100358.00;2083994;28;19912;-52
2022/06/10 05:23:27;;;;;;;;;;;;;;;21.40;54.65;100354.22;2083227;28;19909;-49
2022/06/10 05:24:28;;;;;;;;;;;;;;;21.40;54.36;100353.38;2087444;28;19916;-51
2022/06/10 05:25:28;;;;;;;;;;;;;;;21.39;54.31;100355.25;2086466;28;19916;-51
2022/06/10 05:26:29;;;;;;;;;;;;;;;21.40;54.22;100358.84;2084476;28;19920;-52
2022/06/10 05:27:29;;;;;;;;;;;;;;;21.39;54.44;100352.50;2086646;28;19916;-51
2022/06/10 05:28:29;;;;;;;;;;;;;;;21.40;54.14;100347.88;2087226;28;20229;-48
2022/06/10 05:29:30;;;;;;;;;;;;;;;21.39;54.33;100358.00;2083576;28;20142;-51
2022/06/10 05:30:31;;;;;;;;;;;;;;;21.40;54.35;100358.84;2084704;28;19912;-52